Airport View

Enter AWOS ICAO identifier for current METAR.

ex. KFNL

KEKS 220055Z AUTO 17016KT 10SM OVC065 M08/M15 A2999 RMK AO2

22 Feb 2018 01:12

Frequency: 119.85

Phone: 406-682-3835

Other Area AWOS: KBZN - KDLN - KWYS - KLVM

TAF KEKS 212341Z 2200/2224 17015KT P6SM FEW070 SCT150 FM221400 16010KT P6SM BKN070